Time;durP1;ratioP1;P1;durP2;ratioP2;P2;SDS_P1;SDS_P2;PMS_P1;PMS_P2;Temp;Humidity;BMP_temperature;BMP_pressure;BME280_temperature;BME280_humidity;BME280_pressure;Samples;Min_cycle;Max_cycle;Signal;HPM_P1;HPM_P2
2024/03/07 00:02:19;;;;;;;14.65;11.50;;;12.50;89.80;;;;;;4994952;28;20049;-76
2024/03/07 00:04:45;;;;;;;13.35;10.73;;;12.40;89.70;;;;;;4995266;28;20026;-76
2024/03/07 00:07:11;;;;;;;13.73;11.18;;;12.40;89.70;;;;;;4995704;28;20033;-76
2024/03/07 00:09:36;;;;;;;12.98;10.95;;;12.40;89.70;;;;;;4994843;28;20022;-77
2024/03/07 00:12:03;;;;;;;14.25;11.48;;;12.40;89.70;;;;;;4994853;28;20029;-77
2024/03/07 00:14:28;;;;;;;14.35;11.55;;;12.40;89.60;;;;;;5012647;28;20108;-77
2024/03/07 00:16:59;;;;;;;14.88;11.55;;;12.40;89.60;;;;;;4995495;28;20127;-77
2024/03/07 00:19:26;;;;;;;15.07;11.60;;;12.40;89.60;;;;;;5012502;28;20113;-78
2024/03/07 00:21:59;;;;;;;14.68;11.15;;;12.40;89.60;;;;;;4994613;28;20036;-77
2024/03/07 00:24:24;;;;;;;13.75;10.88;;;12.40;89.60;;;;;;4995376;28;20024;-76
2024/03/07 00:26:51;;;;;;;14.10;11.23;;;12.40;89.60;;;;;;5012579;28;20034;-76
2024/03/07 00:29:18;;;;;;;14.90;11.63;;;12.50;89.70;;;;;;4995561;28;20022;-77
2024/03/07 00:31:44;;;;;;;13.75;10.80;;;12.40;89.60;;;;;;5012523;28;20025;-78
2024/03/07 00:34:09;;;;;;;13.35;10.55;;;12.40;89.60;;;;;;4994777;28;20121;-77
2024/03/07 00:36:35;;;;;;;13.05;11.00;;;12.40;89.60;;;;;;5012718;28;20109;-76
2024/03/07 00:39:01;;;;;;;13.63;10.55;;;12.40;89.60;;;;;;4994836;28;20034;-76
2024/03/07 00:41:26;;;;;;;13.70;10.45;;;12.40;89.70;;;;;;4994677;28;20120;-77
2024/03/07 00:43:53;;;;;;;14.93;11.32;;;12.40;89.70;;;;;;5012305;28;20049;-77
2024/03/07 00:46:18;;;;;;;14.20;11.02;;;12.40;89.70;;;;;;4994773;28;20021;-76
2024/03/07 00:48:46;;;;;;;14.02;11.38;;;12.40;89.70;;;;;;4994861;28;20025;-77
2024/03/07 00:51:11;;;;;;;15.35;11.02;;;12.50;89.70;;;;;;5012394;28;20032;-77
2024/03/07 00:53:37;;;;;;;14.00;11.15;;;12.40;89.60;;;;;;5012034;28;20407;-76
2024/03/07 00:56:04;;;;;;;13.43;10.50;;;12.40;89.60;;;;;;4994572;28;20032;-76
2024/03/07 00:58:30;;;;;;;12.88;10.63;;;12.40;89.70;;;;;;4994331;28;20022;-76
2024/03/07 01:00:56;;;;;;;13.63;10.77;;;12.40;89.70;;;;;;5011873;28;20391;-76
2024/03/07 01:03:21;;;;;;;14.02;11.10;;;12.40;89.70;;;;;;5011453;28;20037;-76
2024/03/07 01:05:47;;;;;;;13.98;10.75;;;12.40;89.70;;;;;;4994064;28;20057;-76
2024/03/07 01:08:12;;;;;;;13.57;11.15;;;12.40;89.60;;;;;;4994154;28;20029;-76
2024/03/07 01:10:38;;;;;;;14.55;11.52;;;12.40;89.70;;;;;;5011634;28;20479;-75
2024/03/07 01:13:05;;;;;;;13.55;10.57;;;12.40;89.70;;;;;;4993779;28;20030;-76
2024/03/07 01:15:32;;;;;;;15.23;11.85;;;12.40;89.70;;;;;;5011465;28;20109;-77
2024/03/07 01:17:58;;;;;;;14.18;11.13;;;12.40;89.60;;;;;;5011751;28;20025;-76
2024/03/07 01:20:25;;;;;;;14.15;11.15;;;12.40;89.60;;;;;;4994051;28;20025;-76
2024/03/07 01:22:53;;;;;;;14.80;11.10;;;12.40;89.70;;;;;;5011249;28;20022;-77
2024/03/07 01:25:21;;;;;;;13.43;10.32;;;12.40;89.60;;;;;;4993976;28;20360;-76
2024/03/07 01:27:47;;;;;;;13.27;10.65;;;12.40;89.60;;;;;;4993778;28;20418;-78
2024/03/07 01:30:13;;;;;;;13.77;10.70;;;12.40;89.60;;;;;;4994130;28;20375;-78
2024/03/07 01:32:38;;;;;;;14.32;11.30;;;12.40;89.60;;;;;;4993401;28;20029;-77
2024/03/07 01:35:07;;;;;;;12.82;10.45;;;12.40;89.60;;;;;;5011826;28;20033;-76
2024/03/07 01:37:32;;;;;;;14.27;11.23;;;12.40;89.60;;;;;;5011720;28;20510;-76
2024/03/07 01:39:58;;;;;;;12.95;10.30;;;12.40;89.60;;;;;;4993744;28;20128;-77
2024/03/07 01:42:24;;;;;;;13.10;10.43;;;12.40;89.60;;;;;;4993927;28;20061;-76
2024/03/07 01:44:51;;;;;;;13.60;10.60;;;12.40;89.70;;;;;;4993751;28;20024;-76
2024/03/07 01:47:17;;;;;;;14.02;10.93;;;12.40;89.60;;;;;;4994322;28;20697;-77
2024/03/07 01:49:42;;;;;;;13.68;10.38;;;12.40;89.60;;;;;;4993587;28;20053;-77
2024/03/07 01:52:10;;;;;;;13.52;10.60;;;12.40;89.60;;;;;;4993659;28;20450;-77
2024/03/07 01:54:36;;;;;;;14.15;10.95;;;12.40;89.60;;;;;;4994104;28;20030;-77
2024/03/07 01:57:03;;;;;;;13.70;10.55;;;12.40;90.00;;;;;;5011496;28;20029;-77
2024/03/07 01:59:30;;;;;;;13.65;10.75;;;12.40;89.60;;;;;;4993637;28;20042;-77
2024/03/07 02:01:56;;;;;;;13.63;10.98;;;12.40;89.60;;;;;;4993269;28;20034;-76
2024/03/07 02:04:23;;;;;;;13.52;10.90;;;12.40;89.60;;;;;;5011496;28;20033;-77
2024/03/07 02:06:49;;;;;;;14.23;11.23;;;12.40;89.60;;;;;;4993911;28;20026;-77
2024/03/07 02:09:14;;;;;;;13.77;10.70;;;12.40;89.60;;;;;;4993541;28;20510;-76
2024/03/07 02:11:40;;;;;;;13.10;10.57;;;12.40;89.60;;;;;;4993628;28;20040;-76
2024/03/07 02:14:05;;;;;;;14.13;11.30;;;12.40;89.60;;;;;;5011259;28;20548;-76
2024/03/07 02:16:31;;;;;;;13.40;10.68;;;12.40;89.60;;;;;;4993399;28;20037;-76
2024/03/07 02:18:59;;;;;;;13.70;10.93;;;12.40;89.60;;;;;;4996339;28;20030;-76
2024/03/07 02:21:25;;;;;;;13.95;11.02;;;12.40;89.60;;;;;;4996992;28;20498;-76
2024/03/07 02:23:51;;;;;;;14.52;10.75;;;12.40;89.60;;;;;;4996748;28;20112;-76
2024/03/07 02:26:16;;;;;;;13.10;10.43;;;12.40;89.60;;;;;;4997322;28;20036;-77
2024/03/07 02:28:42;;;;;;;14.05;10.77;;;12.40;89.60;;;;;;5014275;28;20391;-76
2024/03/07 02:31:07;;;;;;;12.93;10.60;;;12.40;89.60;;;;;;4996922;28;20398;-77
2024/03/07 02:33:33;;;;;;;13.52;10.38;;;12.40;89.60;;;;;;4996600;28;20037;-77
2024/03/07 02:35:58;;;;;;;12.52;10.40;;;12.40;89.60;;;;;;4996479;28;20030;-76
2024/03/07 02:38:24;;;;;;;12.73;10.18;;;12.40;89.50;;;;;;4996762;28;20033;-76
2024/03/07 02:40:49;;;;;;;12.95;10.70;;;12.40;90.00;;;;;;4996678;28;20438;-76
2024/03/07 02:43:15;;;;;;;12.90;10.23;;;12.40;89.60;;;;;;4996882;28;20101;-76
2024/03/07 02:45:41;;;;;;;13.30;10.73;;;12.40;89.60;;;;;;4996628;28;20025;-76
2024/03/07 02:48:09;;;;;;;13.40;10.27;;;12.40;89.60;;;;;;5014559;28;20517;-77
2024/03/07 02:50:37;;;;;;;13.35;10.52;;;12.40;89.60;;;;;;5014416;28;20026;-76
2024/03/07 02:53:03;;;;;;;14.25;10.63;;;12.40;89.60;;;;;;5014075;28;20057;-77
2024/03/07 02:55:29;;;;;;;13.75;10.50;;;12.40;89.60;;;;;;4996638;28;20125;-76
2024/03/07 02:57:56;;;;;;;15.00;11.50;;;12.40;89.50;;;;;;4996499;28;20137;-76
2024/03/07 03:00:26;;;;;;;13.63;10.50;;;12.40;89.60;;;;;;4996678;28;20032;-76
2024/03/07 03:02:52;;;;;;;13.18;10.18;;;12.40;89.60;;;;;;5013823;28;20018;-76
2024/03/07 03:05:18;;;;;;;13.38;11.02;;;12.40;89.50;;;;;;4996359;28;20410;-77
2024/03/07 03:07:46;;;;;;;13.02;10.68;;;12.40;89.50;;;;;;4996233;28;20030;-76
2024/03/07 03:10:14;;;;;;;14.40;11.20;;;12.40;89.50;;;;;;4996305;28;20429;-76
2024/03/07 03:12:40;;;;;;;14.20;11.05;;;12.40;89.50;;;;;;4995973;28;20054;-76
2024/03/07 03:15:07;;;;;;;12.27;10.10;;;12.40;89.50;;;;;;4996336;28;20022;-76
2024/03/07 03:17:33;;;;;;;13.70;10.70;;;12.40;89.50;;;;;;4995749;28;20068;-76
2024/03/07 03:19:59;;;;;;;13.45;10.50;;;12.40;89.50;;;;;;5013725;28;20131;-76
2024/03/07 03:22:26;;;;;;;13.23;10.88;;;12.40;89.50;;;;;;5013102;28;20486;-76
2024/03/07 03:24:55;;;;;;;13.27;10.82;;;12.40;89.50;;;;;;5013602;28;20160;-76
2024/03/07 03:27:21;;;;;;;13.60;11.02;;;12.40;89.50;;;;;;4996007;28;20021;-76
2024/03/07 03:29:47;;;;;;;12.93;9.95;;;12.40;89.50;;;;;;4994708;28;20133;-77
2024/03/07 03:32:13;;;;;;;14.40;11.35;;;12.40;89.50;;;;;;4995981;28;20019;-76
2024/03/07 03:34:38;;;;;;;12.85;10.52;;;12.40;89.50;;;;;;4996121;28;20125;-76
2024/03/07 03:37:04;;;;;;;13.10;10.25;;;12.40;89.50;;;;;;4995978;28;20533;-77
2024/03/07 03:39:30;;;;;;;13.45;10.48;;;12.40;89.50;;;;;;4995765;28;20121;-77
2024/03/07 03:41:55;;;;;;;13.63;10.55;;;12.40;89.50;;;;;;4995170;28;20592;-76
2024/03/07 03:44:21;;;;;;;13.73;10.93;;;12.40;89.50;;;;;;5007648;28;20034;-77
2024/03/07 03:46:46;;;;;;;13.15;10.18;;;12.40;89.50;;;;;;5007303;28;20026;-76
2024/03/07 03:49:12;;;;;;;12.85;10.07;;;12.40;89.40;;;;;;4995143;28;20045;-77
2024/03/07 03:51:37;;;;;;;13.82;10.52;;;12.40;89.50;;;;;;4995635;28;20030;-76
2024/03/07 03:54:03;;;;;;;12.90;9.95;;;12.40;89.50;;;;;;5012955;28;20072;-76
2024/03/07 03:56:28;;;;;;;13.00;10.35;;;12.40;89.40;;;;;;4995444;28;20490;-77
2024/03/07 03:58:54;;;;;;;14.23;11.48;;;12.40;89.40;;;;;;4995350;28;20490;-77
2024/03/07 04:01:19;;;;;;;13.25;10.05;;;12.40;90.00;;;;;;4995445;28;20032;-76
2024/03/07 04:03:46;;;;;;;13.23;10.35;;;12.40;89.50;;;;;;4994948;28;20022;-77
2024/03/07 04:06:12;;;;;;;12.85;10.55;;;12.40;89.40;;;;;;5012940;28;20052;-76
2024/03/07 04:08:37;;;;;;;12.65;10.50;;;12.40;89.40;;;;;;4995245;28;20061;-76
2024/03/07 04:11:04;;;;;;;13.32;10.45;;;12.40;89.50;;;;;;4995260;28;20513;-76
2024/03/07 04:13:30;;;;;;;13.05;9.95;;;12.40;89.50;;;;;;5012719;28;20026;-77
2024/03/07 04:15:55;;;;;;;14.00;11.20;;;12.40;89.40;;;;;;4995060;28;20030;-76
2024/03/07 04:18:21;;;;;;;12.77;10.90;;;12.30;89.30;;;;;;4995129;28;20026;-76
2024/03/07 04:20:46;;;;;;;12.57;10.18;;;12.40;89.40;;;;;;4994816;28;20489;-76
2024/03/07 04:23:12;;;;;;;12.75;10.05;;;12.40;89.40;;;;;;5012933;28;20545;-77
2024/03/07 04:25:37;;;;;;;12.88;10.82;;;12.40;89.40;;;;;;5013056;28;20025;-77
2024/03/07 04:28:04;;;;;;;13.07;10.48;;;12.40;89.50;;;;;;4995175;28;20096;-76
2024/03/07 04:30:29;;;;;;;13.07;10.32;;;12.40;89.40;;;;;;5012600;28;20149;-77
2024/03/07 04:32:55;;;;;;;12.23;10.05;;;12.40;89.40;;;;;;5012295;28;20598;-77
2024/03/07 04:35:21;;;;;;;13.52;10.70;;;12.40;89.40;;;;;;4995111;28;20044;-77
2024/03/07 04:37:47;;;;;;;12.48;10.40;;;12.30;89.30;;;;;;5012800;28;20426;-76
2024/03/07 04:40:15;;;;;;;13.95;10.82;;;12.40;89.30;;;;;;4994054;28;20045;-77
2024/03/07 04:42:45;;;;;;;13.85;10.63;;;12.30;89.30;;;;;;4994529;28;20494;-77
2024/03/07 04:45:13;;;;;;;13.70;10.52;;;12.30;89.40;;;;;;4994622;28;20030;-76
2024/03/07 04:47:40;;;;;;;13.60;11.00;;;12.30;89.30;;;;;;5012379;28;20025;-76
2024/03/07 04:50:05;;;;;;;13.35;10.35;;;12.30;89.30;;;;;;4994920;28;20022;-76
2024/03/07 04:52:31;;;;;;;13.65;11.02;;;12.30;89.30;;;;;;4994651;28;20140;-78
2024/03/07 04:54:56;;;;;;;12.88;10.45;;;12.30;89.30;;;;;;4994748;28;20626;-77
2024/03/07 04:57:22;;;;;;;13.45;10.85;;;12.30;89.30;;;;;;5012071;28;20030;-76
2024/03/07 04:59:48;;;;;;;12.82;10.40;;;12.30;89.30;;;;;;4994454;28;20029;-76
2024/03/07 05:02:13;;;;;;;13.35;10.15;;;12.40;89.40;;;;;;4994045;28;20037;-77
2024/03/07 05:04:39;;;;;;;13.38;10.80;;;12.30;89.30;;;;;;5012412;28;20022;-76
2024/03/07 05:07:05;;;;;;;11.85;9.63;;;12.30;89.30;;;;;;5012001;28;20025;-76
2024/03/07 05:09:33;;;;;;;12.70;10.23;;;12.30;89.20;;;;;;4994790;28;20395;-76
2024/03/07 05:11:59;;;;;;;13.00;10.68;;;12.40;89.30;;;;;;5012006;28;20026;-76
2024/03/07 05:14:27;;;;;;;12.35;9.88;;;12.30;89.30;;;;;;4994161;28;20022;-76
2024/03/07 05:17:04;;;;;;;13.65;10.63;;;12.40;89.30;;;;;;5011798;28;20033;-77
2024/03/07 05:19:31;;;;;;;12.68;10.07;;;12.40;89.40;;;;;;5012000;28;20059;-77
2024/03/07 05:21:56;;;;;;;12.27;10.38;;;12.30;89.30;;;;;;5011577;28;20022;-76
2024/03/07 05:24:22;;;;;;;12.60;10.23;;;12.30;89.30;;;;;;5011971;28;20045;-76
2024/03/07 05:26:47;;;;;;;12.32;10.30;;;12.30;89.30;;;;;;4994047;28;20026;-77
2024/03/07 05:29:13;;;;;;;12.48;10.32;;;12.30;89.30;;;;;;4994269;28;20028;-77
2024/03/07 05:31:46;;;;;;;14.40;11.05;;;12.40;89.30;;;;;;4994025;28;20520;-76
2024/03/07 05:34:12;;;;;;;12.32;10.38;;;12.30;89.20;;;;;;5011526;28;20033;-77
2024/03/07 05:36:44;;;;;;;12.77;10.35;;;12.30;89.30;;;;;;4994340;28;20030;-77
2024/03/07 05:39:11;;;;;;;13.85;10.80;;;12.30;89.30;;;;;;5011702;28;20052;-77
2024/03/07 05:41:40;;;;;;;13.20;10.77;;;12.30;89.30;;;;;;4994077;28;20383;-76
2024/03/07 05:44:09;;;;;;;13.65;10.88;;;12.30;89.20;;;;;;4990950;28;20042;-76
2024/03/07 05:46:46;;;;;;;14.13;10.60;;;12.30;89.20;;;;;;4993589;28;20045;-77
2024/03/07 05:49:16;;;;;;;13.40;10.57;;;12.30;89.20;;;;;;4994298;28;20022;-77
2024/03/07 05:51:44;;;;;;;13.20;10.40;;;12.30;89.20;;;;;;5011715;28;20018;-76
2024/03/07 05:54:14;;;;;;;12.43;10.05;;;12.30;89.20;;;;;;5014587;28;20034;-78
2024/03/07 05:56:40;;;;;;;13.15;10.65;;;12.30;89.20;;;;;;4996879;28;20037;-77
2024/03/07 05:59:12;;;;;;;13.27;10.77;;;12.30;89.20;;;;;;4993613;28;20037;-77
2024/03/07 06:01:38;;;;;;;13.40;10.60;;;12.40;89.20;;;;;;4986198;28;20034;-78
2024/03/07 06:04:06;;;;;;;12.65;10.23;;;12.30;89.20;;;;;;4992828;28;20449;-78
2024/03/07 06:06:33;;;;;;;12.05;9.88;;;12.30;89.20;;;;;;4991860;28;20033;-77
2024/03/07 06:09:07;;;;;;;12.05;10.13;;;12.30;89.20;;;;;;4998616;28;20064;-78
2024/03/07 06:11:37;;;;;;;12.57;10.30;;;12.30;89.20;;;;;;5011504;28;20451;-78
2024/03/07 06:14:04;;;;;;;12.77;10.00;;;12.30;89.20;;;;;;4994147;28;20113;-78
2024/03/07 06:16:37;;;;;;;13.20;10.30;;;12.30;89.10;;;;;;4995022;28;20030;-77
2024/03/07 06:19:04;;;;;;;13.55;10.35;;;12.30;89.20;;;;;;4993500;28;20038;-76
2024/03/07 06:21:33;;;;;;;13.48;11.15;;;12.30;89.20;;;;;;4993502;28;20529;-76
2024/03/07 06:24:02;;;;;;;12.73;10.73;;;12.30;89.20;;;;;;5011195;28;20026;-78
2024/03/07 06:27:09;;;;;;;12.93;10.70;;;12.30;89.20;;;;;;5012407;28;20100;-78
2024/03/07 06:29:21;;;;;;;12.68;10.50;;;12.30;89.20;;;;;;5008803;28;20026;-76
2024/03/07 06:31:47;;;;;;;13.07;10.40;;;12.30;89.20;;;;;;5011678;28;20449;-75
2024/03/07 06:34:13;;;;;;;13.40;10.57;;;12.30;89.10;;;;;;5010902;28;20054;-77
2024/03/07 06:36:38;;;;;;;12.60;10.40;;;12.30;89.20;;;;;;5010493;28;20030;-78
2024/03/07 06:39:07;;;;;;;12.43;9.82;;;12.30;89.10;;;;;;5011516;28;20065;-77
2024/03/07 06:41:36;;;;;;;13.38;10.82;;;12.30;89.10;;;;;;4992495;28;20053;-78
2024/03/07 06:44:02;;;;;;;12.60;10.13;;;12.20;89.10;;;;;;5011423;28;20026;-78
2024/03/07 06:46:28;;;;;;;13.48;10.73;;;12.30;89.20;;;;;;5011380;28;20559;-76
2024/03/07 06:48:54;;;;;;;12.07;9.65;;;12.30;89.20;;;;;;4994654;28;20053;-76
2024/03/07 06:51:19;;;;;;;12.70;9.95;;;12.30;89.20;;;;;;4993074;28;20033;-77
2024/03/07 06:53:50;;;;;;;12.68;10.02;;;12.30;89.10;;;;;;4993808;28;20026;-78
2024/03/07 06:56:16;;;;;;;11.80;9.98;;;12.30;89.20;;;;;;5010884;28;20080;-76
2024/03/07 06:58:42;;;;;;;13.00;10.68;;;12.30;89.10;;;;;;4992279;28;20049;-77
2024/03/07 07:01:10;;;;;;;14.15;10.60;;;12.30;89.10;;;;;;4992694;28;20400;-78
2024/03/07 07:03:36;;;;;;;12.18;10.00;;;12.30;89.10;;;;;;4991757;28;20538;-76
2024/03/07 07:06:02;;;;;;;12.85;10.70;;;12.30;89.20;;;;;;5010865;28;20113;-77
2024/03/07 07:08:30;;;;;;;14.23;11.45;;;12.30;89.20;;;;;;4991762;28;20130;-76
2024/03/07 07:10:56;;;;;;;12.95;10.40;;;12.30;89.10;;;;;;4994060;28;20037;-76
2024/03/07 07:13:22;;;;;;;13.02;10.48;;;12.30;89.10;;;;;;4992767;28;20114;-77
2024/03/07 07:15:49;;;;;;;12.90;10.35;;;12.30;89.10;;;;;;4992675;28;20034;-77
2024/03/07 07:18:15;;;;;;;12.80;10.13;;;12.30;89.10;;;;;;4992334;28;20502;-76
2024/03/07 07:20:40;;;;;;;12.80;10.15;;;12.30;89.10;;;;;;5010461;28;20030;-76
2024/03/07 07:23:06;;;;;;;12.63;10.60;;;12.30;89.10;;;;;;4992901;28;20029;-78
2024/03/07 07:25:32;;;;;;;13.63;10.50;;;12.30;89.10;;;;;;5011114;28;20022;-77
2024/03/07 07:27:57;;;;;;;13.40;10.30;;;12.30;89.10;;;;;;5009547;28;20038;-76
2024/03/07 07:30:23;;;;;;;12.82;10.27;;;12.30;89.10;;;;;;4991983;28;20022;-77
2024/03/07 07:32:51;;;;;;;13.00;10.20;;;12.30;89.10;;;;;;4992781;28;20018;-76
2024/03/07 07:35:17;;;;;;;13.95;10.10;;;12.30;89.10;;;;;;4992200;28;20030;-75
2024/03/07 07:37:44;;;;;;;12.73;10.43;;;12.30;89.10;;;;;;4992680;28;20135;-78
2024/03/07 07:40:18;;;;;;;12.40;9.90;;;12.30;89.10;;;;;;4992869;28;20425;-76
2024/03/07 07:42:47;;;;;;;12.88;9.80;;;12.30;89.10;;;;;;4992715;28;20030;-77
2024/03/07 07:45:15;;;;;;;12.13;9.77;;;12.30;89.10;;;;;;4977832;28;20541;-76
2024/03/07 07:47:46;;;;;;;12.68;9.90;;;12.30;89.10;;;;;;5009120;28;20038;-75
2024/03/07 07:50:19;;;;;;;12.20;9.68;;;12.30;89.10;;;;;;5010367;28;20030;-77
2024/03/07 07:52:50;;;;;;;11.85;9.68;;;12.30;89.10;;;;;;5011528;28;20502;-77
2024/03/07 07:55:34;;;;;;;13.63;10.93;;;12.30;89.20;;;;;;4994860;28;20034;-77
2024/03/07 07:58:03;;;;;;;13.30;10.35;;;12.30;89.20;;;;;;5011915;28;20532;-77
2024/03/07 08:00:30;;;;;;;12.93;10.23;;;12.30;89.20;;;;;;4993391;28;20038;-76
2024/03/07 08:03:01;;;;;;;12.63;10.05;;;12.30;89.20;;;;;;4992111;28;20022;-78
2024/03/07 08:05:29;;;;;;;14.70;10.40;;;12.30;89.10;;;;;;4992939;28;20030;-76
2024/03/07 08:07:57;;;;;;;12.32;9.80;;;12.30;89.10;;;;;;4992064;28;20144;-79
2024/03/07 08:10:25;;;;;;;13.02;9.95;;;12.30;89.00;;;;;;4992539;28;20491;-76
2024/03/07 08:12:51;;;;;;;12.27;9.77;;;12.30;88.90;;;;;;4993454;28;20041;-78
2024/03/07 08:15:17;;;;;;;12.18;10.20;;;12.30;88.90;;;;;;4993887;28;20026;-79
2024/03/07 08:17:47;;;;;;;12.98;10.07;;;12.30;88.80;;;;;;4993262;28;20407;-78
2024/03/07 08:20:18;;;;;;;12.93;10.35;;;12.30;88.70;;;;;;4995434;28;20112;-79
2024/03/07 08:22:44;;;;;;;13.87;10.77;;;12.30;88.60;;;;;;4993668;28;20034;-78
2024/03/07 08:25:12;;;;;;;12.35;9.93;;;12.30;88.60;;;;;;4994393;28;20842;-77
2024/03/07 08:27:38;;;;;;;13.25;10.75;;;12.30;88.50;;;;;;4992149;28;20081;-78
2024/03/07 08:30:06;;;;;;;13.25;10.25;;;12.30;88.40;;;;;;5010856;28;20029;-80
2024/03/07 08:32:38;;;;;;;13.60;10.20;;;12.30;88.40;;;;;;4992572;28;20495;-78
2024/03/07 08:35:09;;;;;;;12.98;9.80;;;12.30;88.40;;;;;;5012184;28;20049;-81
2024/03/07 08:37:43;;;;;;;13.43;10.82;;;12.30;88.40;;;;;;5012596;28;20026;-80
2024/03/07 08:40:10;;;;;;;13.38;10.80;;;12.30;88.40;;;;;;4991854;28;20518;-78
2024/03/07 08:42:37;;;;;;;12.77;10.20;;;12.30;88.50;;;;;;4993153;28;20033;-78
2024/03/07 08:45:04;;;;;;;14.23;10.48;;;12.30;88.50;;;;;;4992636;28;20025;-76
2024/03/07 08:47:33;;;;;;;12.60;10.18;;;12.30;88.40;;;;;;4992211;28;20206;-78
2024/03/07 08:50:00;;;;;;;13.50;10.85;;;12.30;88.40;;;;;;4992208;28;20040;-78
2024/03/07 08:52:26;;;;;;;15.20;10.88;;;12.30;88.50;;;;;;4990974;28;20092;-79
2024/03/07 08:54:53;;;;;;;14.13;10.40;;;12.30;88.50;;;;;;5010394;28;20025;-74
2024/03/07 08:57:22;;;;;;;13.52;10.55;;;12.30;88.50;;;;;;4991299;28;20128;-76
2024/03/07 08:59:48;;;;;;;15.30;10.70;;;12.30;88.50;;;;;;4991020;28;20036;-76
2024/03/07 09:02:14;;;;;;;13.93;10.25;;;12.30;88.50;;;;;;4990477;28;20573;-76
2024/03/07 09:04:40;;;;;;;15.13;11.50;;;12.30;88.50;;;;;;5008019;28;20057;-76
2024/03/07 09:07:06;;;;;;;14.43;10.90;;;12.30;88.50;;;;;;5007684;28;20026;-76
2024/03/07 09:09:32;;;;;;;20.27;11.40;;;12.30;88.60;;;;;;4989556;28;20025;-75
2024/03/07 09:11:57;;;;;;;16.50;10.93;;;12.30;88.00;;;;;;5007014;28;20092;-76
2024/03/07 09:14:23;;;;;;;19.08;11.73;;;12.20;87.70;;;;;;4990111;28;20026;-76
2024/03/07 09:16:49;;;;;;;18.77;12.07;;;12.30;87.60;;;;;;4989447;28;20025;-76
2024/03/07 09:19:19;;;;;;;18.08;12.30;;;12.20;87.40;;;;;;4989965;28;20094;-77
2024/03/07 09:21:49;;;;;;;17.25;11.15;;;12.30;87.40;;;;;;4989078;28;20026;-76
2024/03/07 09:24:15;;;;;;;18.52;12.02;;;12.30;87.50;;;;;;5006861;28;20018;-75
2024/03/07 09:26:40;;;;;;;16.33;11.52;;;12.30;87.50;;;;;;5007262;28;20129;-75
2024/03/07 09:29:06;;;;;;;18.02;12.20;;;12.30;87.60;;;;;;4989246;28;20033;-75
2024/03/07 09:31:34;;;;;;;18.48;11.68;;;12.20;87.70;;;;;;4989540;28;20022;-76
2024/03/07 09:34:00;;;;;;;15.15;11.75;;;12.30;87.80;;;;;;4989048;28;20037;-76
2024/03/07 09:36:26;;;;;;;17.83;11.52;;;12.30;87.80;;;;;;4989719;28;20120;-75
2024/03/07 09:38:53;;;;;;;17.75;12.25;;;12.30;87.90;;;;;;5006638;28;20129;-76
2024/03/07 09:41:19;;;;;;;16.17;11.90;;;12.30;87.90;;;;;;4989114;28;20500;-76
2024/03/07 09:43:47;;;;;;;19.85;12.45;;;12.30;88.00;;;;;;5006331;28;20359;-76
2024/03/07 09:46:14;;;;;;;15.77;11.60;;;12.30;88.00;;;;;;4988767;28;20394;-75
2024/03/07 09:48:39;;;;;;;16.15;11.32;;;12.30;88.10;;;;;;5006933;28;20040;-76
2024/03/07 09:51:10;;;;;;;16.85;11.50;;;12.30;88.00;;;;;;5007000;28;20038;-75
2024/03/07 09:53:37;;;;;;;17.33;11.23;;;12.30;88.10;;;;;;5007032;28;20498;-76
2024/03/07 09:56:04;;;;;;;16.23;11.60;;;12.30;88.10;;;;;;5007011;28;20037;-76
2024/03/07 09:58:34;;;;;;;15.98;11.65;;;12.30;88.20;;;;;;4989536;28;20544;-76
2024/03/07 10:01:02;;;;;;;16.70;11.52;;;12.30;88.20;;;;;;5006853;28;20026;-75
2024/03/07 10:03:29;;;;;;;15.05;11.23;;;12.30;88.20;;;;;;5006791;28;20256;-76
2024/03/07 10:05:55;;;;;;;15.32;11.15;;;12.30;88.30;;;;;;5006623;28;20026;-76
2024/03/07 10:08:22;;;;;;;15.02;11.52;;;12.30;88.40;;;;;;4989768;28;20196;-76
2024/03/07 10:10:49;;;;;;;16.02;11.20;;;12.30;88.40;;;;;;5006198;28;20026;-77
2024/03/07 10:13:14;;;;;;;15.02;11.48;;;12.30;88.40;;;;;;4988626;28;21028;-76
2024/03/07 10:15:43;;;;;;;17.13;11.73;;;12.30;88.40;;;;;;4989624;28;20121;-77
2024/03/07 10:18:13;;;;;;;14.15;10.98;;;12.30;88.40;;;;;;4989651;28;20957;-77
2024/03/07 10:20:39;;;;;;;14.52;10.63;;;12.30;89.00;;;;;;4989742;28;20125;-76
2024/03/07 10:23:07;;;;;;;14.45;10.82;;;12.30;88.50;;;;;;5007480;28;20090;-76
2024/03/07 10:25:33;;;;;;;16.67;11.07;;;12.30;88.40;;;;;;5007444;28;20447;-76
2024/03/07 10:28:00;;;;;;;14.95;11.27;;;12.30;88.40;;;;;;5007387;28;20058;-77
2024/03/07 10:30:27;;;;;;;14.60;11.27;;;12.30;88.40;;;;;;4989640;28;20032;-76
2024/03/07 10:32:57;;;;;;;14.95;11.27;;;12.30;88.50;;;;;;4989499;28;20030;-78
2024/03/07 10:35:26;;;;;;;16.35;11.65;;;12.30;88.50;;;;;;4989843;28;20504;-77
2024/03/07 10:38:00;;;;;;;15.15;11.35;;;12.40;88.60;;;;;;5006986;28;20030;-77
2024/03/07 10:40:27;;;;;;;14.27;11.07;;;12.30;88.50;;;;;;4993411;28;20030;-76
2024/03/07 10:42:56;;;;;;;13.75;10.45;;;12.30;88.50;;;;;;4992633;28;20021;-77
2024/03/07 10:45:22;;;;;;;14.15;10.68;;;12.30;88.50;;;;;;4993729;28;20487;-77
2024/03/07 10:47:57;;;;;;;14.88;11.00;;;12.30;88.60;;;;;;4992802;28;20030;-76
2024/03/07 10:50:55;;;;;;;15.02;11.02;;;12.30;88.60;;;;;;4993613;28;20094;-79
2024/03/07 10:53:41;;;;;;;13.77;10.65;;;12.30;88.70;;;;;;5009629;28;20025;-77
2024/03/07 10:56:48;;;;;;;13.23;10.45;;;12.30;88.70;;;;;;5009221;28;20121;-77
2024/03/07 10:59:24;;;;;;;14.60;10.68;;;12.30;88.70;;;;;;5010175;28;20026;-77
2024/03/07 11:01:49;;;;;;;15.65;10.70;;;12.30;88.70;;;;;;5010693;28;20018;-78
2024/03/07 11:04:21;;;;;;;14.07;10.90;;;12.30;88.70;;;;;;5010473;28;20026;-76
2024/03/07 11:06:49;;;;;;;14.80;11.07;;;12.30;88.60;;;;;;5008744;28;20126;-76
2024/03/07 11:09:22;;;;;;;13.65;10.95;;;12.30;88.70;;;;;;5010794;28;20110;-77
2024/03/07 11:11:48;;;;;;;14.10;10.20;;;12.30;88.60;;;;;;4992533;28;20225;-76
2024/03/07 11:14:16;;;;;;;16.30;11.35;;;12.30;88.60;;;;;;4992716;28;20548;-76
2024/03/07 11:16:43;;;;;;;14.80;10.98;;;12.30;89.20;;;;;;4993208;28;20025;-77
2024/03/07 11:19:30;;;;;;;16.05;11.55;;;12.30;88.60;;;;;;4976686;28;20049;-76
2024/03/07 11:21:56;;;;;;;13.82;10.82;;;12.30;88.60;;;;;;5010058;28;20030;-76
2024/03/07 11:24:31;;;;;;;14.15;11.02;;;12.30;88.60;;;;;;5009503;28;20607;-76
2024/03/07 11:26:57;;;;;;;14.15;10.23;;;12.30;88.60;;;;;;4976421;28;20034;-77
2024/03/07 11:29:46;;;;;;;14.85;11.50;;;12.30;88.80;;;;;;5009967;28;20397;-77
2024/03/07 11:32:13;;;;;;;14.15;10.85;;;12.30;88.60;;;;;;5009618;28;20337;-77
2024/03/07 11:34:41;;;;;;;15.07;11.25;;;12.30;88.60;;;;;;4992176;28;20077;-77
2024/03/07 11:37:07;;;;;;;14.50;10.50;;;12.30;88.60;;;;;;4992654;28;20037;-77
2024/03/07 11:39:41;;;;;;;14.43;10.82;;;12.30;89.20;;;;;;4992176;28;20521;-77
2024/03/07 11:42:07;;;;;;;15.15;10.45;;;12.30;88.70;;;;;;5008842;28;20230;-76
2024/03/07 11:44:34;;;;;;;14.55;10.70;;;12.30;88.70;;;;;;5009364;28;20455;-75
2024/03/07 11:47:08;;;;;;;14.57;10.98;;;12.30;88.70;;;;;;5009926;28;20689;-77
2024/03/07 11:49:37;;;;;;;14.63;10.85;;;12.30;88.70;;;;;;4991812;28;20509;-77
2024/03/07 11:52:13;;;;;;;14.35;11.10;;;12.40;88.70;;;;;;4992103;28;20034;-77
2024/03/07 11:54:45;;;;;;;13.90;10.55;;;12.30;88.70;;;;;;4992287;28;20036;-77
2024/03/07 11:57:12;;;;;;;14.60;10.95;;;12.30;88.90;;;;;;4991200;28;20524;-77
2024/03/07 11:59:45;;;;;;;14.63;10.70;;;12.30;88.70;;;;;;4992432;28;20041;-77
2024/03/07 12:02:17;;;;;;;14.23;10.50;;;12.30;88.80;;;;;;4992431;28;20577;-77
2024/03/07 12:04:46;;;;;;;14.13;10.57;;;12.30;88.80;;;;;;4992475;28;20022;-76
2024/03/07 12:07:12;;;;;;;14.73;10.75;;;12.30;88.80;;;;;;4991156;28;20109;-77
2024/03/07 12:09:39;;;;;;;13.48;10.60;;;12.30;88.80;;;;;;5009012;28;20144;-77
2024/03/07 12:12:09;;;;;;;13.82;10.68;;;12.30;88.80;;;;;;4991146;28;20030;-75
2024/03/07 12:14:34;;;;;;;14.23;10.65;;;12.30;88.90;;;;;;4991970;28;20037;-77
2024/03/07 12:17:03;;;;;;;14.35;10.95;;;12.30;88.80;;;;;;4991741;28;20030;-77
2024/03/07 12:19:31;;;;;;;14.30;10.35;;;12.30;88.80;;;;;;5009162;28;20033;-77
2024/03/07 12:22:00;;;;;;;15.48;10.90;;;12.30;88.80;;;;;;4991499;28;20089;-75
2024/03/07 12:24:25;;;;;;;14.18;10.45;;;12.30;88.90;;;;;;4990856;28;20057;-77
2024/03/07 12:26:51;;;;;;;13.93;10.70;;;12.30;89.40;;;;;;5008747;28;20045;-77
2024/03/07 12:29:16;;;;;;;14.40;10.30;;;12.30;88.90;;;;;;4990585;28;20026;-76
2024/03/07 12:31:42;;;;;;;13.82;10.68;;;12.30;88.90;;;;;;4990841;28;20037;-76